Faina, Brazil
Current Conditions -  °F | °C
As of 10:00 PM on Friday 28 Nov 2014 (Local Time) from SBAN Reporting Station
Drizzle Drizzle  
Wind Chill: 64°   Ceiling: 2000
Heat Index: 64°   Visibility: 6mi
Dew Point: 63°   Wind: 5mph
Humidity: 94%   Direction: 90°E
Pressure: 30.09"   Gusts: NA
Location:  15.45°S, 50.36°W
Report Text: SBAN 290000Z 09004KT 9999 -DZ BKN020 OVC100 18/17 Q1019
Loading
Personal Weather Stations






























Interactive Weather Map New forecast layout! Learn more

10-Day Weather Forecast

Advertisements
Track Severe Weather on mobile